Time;durP1;ratioP1;P1;durP2;ratioP2;P2;SDS_P1;SDS_P2;PMS_P1;PMS_P2;Temp;Humidity;BMP_temperature;BMP_pressure;BME280_temperature;BME280_humidity;BME280_pressure;Samples;Min_cycle;Max_cycle;Signal;HPM_P1;HPM_P2
2022/01/15 00:02:18;;;;;;;0.35;0.35;;;;;;;8.03;68.27;103422.81;5035251;28;20026;-82
2022/01/15 00:04:44;;;;;;;0.20;0.20;;;;;;;7.98;68.70;103418.25;5026205;28;20579;-84
2022/01/15 00:07:10;;;;;;;0.38;0.38;;;;;;;7.94;68.15;103419.88;5030703;28;20025;-84
2022/01/15 00:09:38;;;;;;;0.75;0.75;;;;;;;7.90;68.58;103425.91;5027666;28;20041;-84
2022/01/15 00:12:06;;;;;;;1.35;1.35;;;;;;;7.88;68.54;103422.34;5030134;28;20545;-84
2022/01/15 00:14:38;;;;;;;0.85;0.85;;;;;;;7.85;68.56;103417.84;5026734;28;20052;-84
2022/01/15 00:17:14;;;;;;;0.17;0.17;;;;;;;7.87;68.61;103420.53;5030104;28;20384;-83
2022/01/15 00:19:42;;;;;;;1.33;0.82;;;;;;;7.80;68.48;103419.44;5035086;28;20033;-84
2022/01/15 00:24:49;;;;;;;0.10;0.10;;;;;;;7.81;68.51;103409.78;5081180;27;20430;-84
2022/01/15 00:27:15;;;;;;;0.15;0.15;;;;;;;7.86;68.48;103402.91;5058649;28;20358;-83
2022/01/15 00:29:41;;;;;;;0.95;0.95;;;;;;;7.87;68.51;103404.69;5065290;28;20025;-83
2022/01/15 00:32:08;;;;;;;0.22;0.22;;;;;;;7.81;68.57;103409.78;5032203;28;20032;-84
2022/01/15 00:34:35;;;;;;;0.25;0.25;;;;;;;7.85;68.40;103409.00;5031351;28;20038;-84
2022/01/15 00:37:02;;;;;;;0.50;0.50;;;;;;;7.83;68.45;103397.53;5032036;28;20053;-84
2022/01/15 00:39:28;;;;;;;0.55;0.25;;;;;;;7.84;68.59;103405.50;5030882;28;20026;-84
2022/01/15 00:41:54;;;;;;;1.00;1.00;;;;;;;7.81;68.78;103392.19;5030434;28;20080;-84
2022/01/15 00:44:21;;;;;;;0.20;0.20;;;;;;;7.85;68.59;103385.25;5030131;28;20561;-84
2022/01/15 00:46:47;;;;;;;0.75;0.75;;;;;;;7.82;68.35;103390.44;5031910;28;20719;-84
2022/01/15 00:49:13;;;;;;;0.50;0.50;;;;;;;7.83;68.38;103381.69;5030627;28;20060;-84
2022/01/15 00:51:41;;;;;;;0.13;0.13;;;;;;;7.83;68.35;103369.38;5030557;28;20029;-84
2022/01/15 00:54:07;;;;;;;0.55;0.55;;;;;;;7.83;68.47;103385.22;5031236;28;20057;-84
2022/01/15 00:56:34;;;;;;;0.10;0.10;;;;;;;7.82;68.52;103380.78;5030654;28;20033;-84
2022/01/15 00:59:01;;;;;;;1.13;1.13;;;;;;;7.82;68.40;103385.19;5031561;28;20112;-84
2022/01/15 01:01:28;;;;;;;5.28;1.20;;;;;;;7.77;68.38;103383.25;5033102;28;20053;-84
2022/01/15 01:03:54;;;;;;;0.30;0.30;;;;;;;7.71;68.61;103377.81;5030462;28;20124;-84
2022/01/15 01:06:21;;;;;;;0.10;0.10;;;;;;;7.72;68.38;103376.94;5030599;28;20030;-84
2022/01/15 01:08:47;;;;;;;0.25;0.25;;;;;;;7.72;68.82;103374.31;5030983;28;20028;-84
2022/01/15 01:11:16;;;;;;;0.68;0.68;;;;;;;7.72;68.57;103371.66;5032051;28;20504;-84
2022/01/15 01:22:50;;;;;;;8.68;1.38;;;;;;;7.64;68.32;103343.22;5001154;28;22036;-83
2022/01/15 01:24:47;;;;;;;0.25;0.25;;;;;;;7.63;68.72;103347.63;5000511;28;20050;-83
2022/01/15 01:27:21;;;;;;;0.43;0.43;;;;;;;7.62;68.76;103337.91;5000163;28;20045;-83
2022/01/15 01:30:04;;;;;;;1.67;1.58;;;;;;;7.60;68.50;103339.59;5000162;28;20029;-82
2022/01/15 01:32:46;;;;;;;;;;;;;;;7.78;68.25;103340.19;5004110;28;20030;-83
2022/01/15 01:35:18;;;;;;;0.10;0.10;;;;;;;7.61;68.90;103336.13;5000710;28;19921;-83
2022/01/15 01:37:49;;;;;;;0.20;0.20;;;;;;;7.59;68.94;103343.09;4999572;28;20051;-83
2022/01/15 01:40:22;;;;;;;0.65;0.55;;;;;;;7.56;68.32;103345.63;5002445;28;20161;-82
2022/01/15 01:45:35;;;;;;;2.28;2.17;;;;;;;7.45;68.29;103340.91;4998816;28;20045;-83
2022/01/15 01:48:01;;;;;;;0.22;0.22;;;;;;;7.36;69.02;103331.78;5000480;28;20037;-83
2022/01/15 01:50:29;;;;;;;0.20;0.20;;;;;;;7.37;68.66;103337.09;4983480;28;20381;-83
2022/01/15 01:52:57;;;;;;;0.10;0.10;;;;;;;7.37;68.97;103336.22;5001472;28;20038;-83
2022/01/15 01:55:29;;;;;;;3.25;2.95;;;;;;;7.41;68.28;103333.75;4999324;28;20026;-83
2022/01/15 01:57:57;;;;;;;1.17;1.17;;;;;;;7.34;69.00;103331.75;4998457;28;20105;-83
2022/01/15 02:00:26;;;;;;;0.38;0.38;;;;;;;7.36;68.89;103323.88;5000904;28;20037;-83
2022/01/15 02:02:53;;;;;;;1.08;1.00;;;;;;;7.24;68.75;103327.91;5000884;28;20030;-83
2022/01/15 02:05:21;;;;;;;2.13;2.00;;;;;;;7.32;68.80;103325.50;5000230;28;20378;-83
2022/01/15 02:07:48;;;;;;;0.20;0.20;;;;;;;7.30;68.98;103319.28;4999593;28;20037;-84
2022/01/15 02:10:17;;;;;;;0.25;0.25;;;;;;;7.35;68.61;103319.44;5000748;28;20026;-83
2022/01/15 02:12:45;;;;;;;2.05;1.95;;;;;;;7.33;68.91;103311.47;5003248;28;20148;-83
2022/01/15 02:15:14;;;;;;;0.10;0.10;;;;;;;7.29;68.62;103315.75;5010144;28;20082;-83
2022/01/15 02:17:42;;;;;;;0.10;0.10;;;;;;;7.29;68.60;103309.59;5019966;28;20030;-83
2022/01/15 02:20:24;;;;;;;0.17;0.17;;;;;;;7.28;68.30;103310.44;5018160;28;20026;-84
2022/01/15 02:25:42;;;;;;;0.10;0.10;;;;;;;7.16;68.71;103296.84;5017335;28;20453;-83
2022/01/15 02:28:09;;;;;;;0.17;0.17;;;;;;;7.06;68.79;103299.16;5006535;28;20022;-83
2022/01/15 02:30:35;;;;;;;0.22;0.22;;;;;;;7.08;68.95;103299.22;5005350;28;20033;-83
2022/01/15 02:33:01;;;;;;;0.20;0.20;;;;;;;7.06;68.78;103290.34;5006459;28;20034;-82
2022/01/15 02:35:28;;;;;;;0.17;0.17;;;;;;;7.06;68.71;103287.72;5007903;28;20069;-83
2022/01/15 02:37:54;;;;;;;0.10;0.10;;;;;;;7.02;68.71;103289.34;5006724;28;20028;-83
2022/01/15 02:40:20;;;;;;;0.95;0.95;;;;;;;7.03;69.15;103284.97;5007981;28;20030;-83
2022/01/15 02:42:46;;;;;;;0.10;0.10;;;;;;;7.03;68.92;103275.34;5005768;28;20018;-83
2022/01/15 02:45:20;;;;;;;0.63;0.63;;;;;;;6.99;68.95;103280.44;5005727;28;20040;-83
2022/01/15 02:48:01;;;;;;;0.77;0.77;;;;;;;6.98;68.88;103271.66;5005262;28;20015;-83
2022/01/15 02:50:28;;;;;;;0.20;0.20;;;;;;;7.01;68.93;103268.22;5005589;28;20022;-83
2022/01/15 02:52:54;;;;;;;0.40;0.40;;;;;;;7.01;69.27;103255.03;5006443;28;20029;-83
2022/01/15 02:55:20;;;;;;;0.10;0.10;;;;;;;6.98;69.14;103258.47;5007001;28;20049;-83
2022/01/15 02:57:46;;;;;;;0.77;0.73;;;;;;;6.99;69.20;103264.63;5005793;28;20034;-83
2022/01/15 03:00:13;;;;;;;0.10;0.10;;;;;;;7.06;69.06;103264.88;5003817;28;20030;-84
2022/01/15 03:02:39;;;;;;;0.60;0.60;;;;;;;6.95;69.48;103264.53;5005632;28;20040;-83
2022/01/15 03:05:06;;;;;;;0.20;0.20;;;;;;;7.02;69.23;103256.84;5011002;28;20472;-83
2022/01/15 03:07:34;;;;;;;0.20;0.20;;;;;;;7.03;69.28;103248.97;5004632;28;20057;-84
2022/01/15 03:10:00;;;;;;;0.25;0.25;;;;;;;7.07;68.99;103244.69;5008028;28;20022;-83
2022/01/15 03:12:26;;;;;;;0.10;0.10;;;;;;;7.06;69.19;103245.53;5005108;28;20033;-84
2022/01/15 03:14:55;;;;;;;0.10;0.10;;;;;;;7.06;69.14;103242.91;5006718;28;20085;-83
2022/01/15 03:17:21;;;;;;;0.20;0.20;;;;;;;6.97;69.04;103240.84;5003742;28;20034;-83
2022/01/15 03:19:49;;;;;;;0.13;0.13;;;;;;;6.91;68.96;103238.00;5005044;28;20030;-83
2022/01/15 03:22:17;;;;;;;0.10;0.10;;;;;;;6.86;68.84;103229.94;5004054;28;20062;-83
2022/01/15 03:24:43;;;;;;;1.02;1.02;;;;;;;6.78;68.78;103232.31;5007986;28;20034;-83
2022/01/15 03:27:10;;;;;;;0.20;0.20;;;;;;;6.86;69.34;103239.59;5009392;28;20040;-83
2022/01/15 03:29:43;;;;;;;0.57;0.57;;;;;;;6.87;69.14;103225.59;5008044;28;20030;-83
2022/01/15 03:32:17;;;;;;;0.35;0.35;;;;;;;6.89;69.00;103226.50;5005363;28;20026;-83
2022/01/15 03:34:54;;;;;;;0.30;0.30;;;;;;;6.93;69.00;103220.53;5005224;28;20128;-83
2022/01/15 03:37:20;;;;;;;0.10;0.10;;;;;;;6.90;68.86;103229.22;5005920;28;20046;-83
2022/01/15 03:39:46;;;;;;;0.13;0.13;;;;;;;6.90;69.01;103229.22;5002877;28;20370;-83
2022/01/15 03:42:13;;;;;;;0.10;0.10;;;;;;;6.89;69.03;103223.88;5003429;28;20029;-83
2022/01/15 03:44:42;;;;;;;0.82;0.82;;;;;;;6.90;68.93;103229.22;5004642;28;20026;-83
2022/01/15 03:47:09;;;;;;;0.20;0.20;;;;;;;6.88;68.92;103237.88;5004192;28;20113;-83
2022/01/15 03:49:36;;;;;;;0.10;0.10;;;;;;;6.82;68.92;103227.16;5006995;28;20033;-83
2022/01/15 03:52:03;;;;;;;0.20;0.20;;;;;;;6.79;68.92;103220.94;5003541;28;20022;-83
2022/01/15 03:54:30;;;;;;;0.40;0.40;;;;;;;6.74;69.24;103217.25;5004969;28;20026;-83
2022/01/15 03:56:56;;;;;;;0.10;0.10;;;;;;;6.72;69.02;103218.94;5004566;28;20029;-83
2022/01/15 03:59:22;;;;;;;0.93;0.93;;;;;;;6.77;69.06;103214.72;5004702;28;20065;-83
2022/01/15 04:01:49;;;;;;;0.10;0.10;;;;;;;6.75;69.22;103204.97;5007841;28;20073;-83
2022/01/15 04:04:16;;;;;;;0.30;0.30;;;;;;;6.76;68.95;103207.66;5009382;28;20038;-83
2022/01/15 04:06:42;;;;;;;0.20;0.20;;;;;;;6.74;69.04;103209.34;5005990;28;20552;-83
2022/01/15 04:09:09;;;;;;;0.10;0.10;;;;;;;6.74;68.81;103201.47;5006476;28;20033;-83
2022/01/15 04:11:35;;;;;;;6.93;1.27;;;;;;;6.70;69.29;103198.66;5001528;28;20022;-81
2022/01/15 04:14:03;;;;;;;0.10;0.10;;;;;;;6.73;69.15;103212.84;5003751;28;20109;-83
2022/01/15 04:16:29;;;;;;;0.20;0.20;;;;;;;6.73;69.47;103207.56;5002710;28;20034;-82
2022/01/15 04:18:57;;;;;;;0.10;0.10;;;;;;;6.73;69.35;103191.75;5005188;28;20040;-83
2022/01/15 04:21:24;;;;;;;0.45;0.45;;;;;;;6.73;69.11;103194.38;5002933;28;20039;-83
2022/01/15 04:23:50;;;;;;;6.97;2.22;;;;;;;6.73;69.10;103188.19;5009592;28;20033;-83
2022/01/15 04:26:19;;;;;;;0.85;0.85;;;;;;;6.75;69.13;103191.78;5004461;28;20108;-83
2022/01/15 04:28:45;;;;;;;0.10;0.10;;;;;;;6.71;69.11;103189.91;5002361;28;20033;-83
2022/01/15 04:31:11;;;;;;;0.43;0.43;;;;;;;6.67;69.26;103188.91;5005118;28;20026;-83
2022/01/15 04:33:38;;;;;;;0.20;0.20;;;;;;;6.56;68.97;103177.13;5004151;28;20552;-83
2022/01/15 04:36:07;;;;;;;1.50;1.48;;;;;;;6.56;69.15;103182.38;5002153;28;20037;-83
2022/01/15 04:38:37;;;;;;;1.55;1.45;;;;;;;6.54;69.10;103178.78;5007109;28;20065;-83
2022/01/15 04:41:03;;;;;;;0.50;0.50;;;;;;;6.58;69.22;103175.41;5005646;28;20038;-83
2022/01/15 04:43:30;;;;;;;0.20;0.20;;;;;;;6.58;69.04;103162.25;5008564;28;20057;-83
2022/01/15 04:45:56;;;;;;;0.20;0.20;;;;;;;6.58;69.33;103156.97;5004539;28;20437;-83
2022/01/15 04:48:22;;;;;;;0.10;0.10;;;;;;;6.59;69.30;103157.03;5002740;28;20034;-83
2022/01/15 04:50:49;;;;;;;0.10;0.10;;;;;;;6.59;69.38;103158.75;5002486;28;20057;-83
2022/01/15 04:53:16;;;;;;;4.13;0.85;;;;;;;6.59;69.22;103150.88;5004648;28;20109;-83
2022/01/15 04:55:42;;;;;;;0.45;0.45;;;;;;;6.55;69.12;103141.06;5003862;28;20037;-83
2022/01/15 04:58:09;;;;;;;0.20;0.20;;;;;;;6.52;69.03;103148.84;5001744;28;20034;-83
2022/01/15 05:00:36;;;;;;;0.68;0.68;;;;;;;6.44;69.28;103148.59;5003933;28;20467;-83
2022/01/15 05:03:03;;;;;;;0.10;0.10;;;;;;;6.46;69.04;103160.09;5001663;28;20027;-83
2022/01/15 05:05:29;;;;;;;0.82;0.82;;;;;;;6.47;69.28;103160.13;5001494;28;20030;-83
2022/01/15 05:07:56;;;;;;;0.68;0.68;;;;;;;6.48;69.19;103150.53;5002949;28;20014;-83
2022/01/15 05:10:28;;;;;;;0.10;0.10;;;;;;;6.48;69.06;103154.03;5002514;28;20053;-83
2022/01/15 05:13:01;;;;;;;2.75;0.77;;;;;;;6.47;69.32;103149.59;5003156;28;20396;-83
2022/01/15 05:15:31;;;;;;;0.32;0.32;;;;;;;6.45;69.01;103146.00;5003936;28;20053;-82
2022/01/15 05:18:05;;;;;;;0.10;0.10;;;;;;;6.39;69.09;103147.56;5002894;28;20076;-83
2022/01/15 05:20:37;;;;;;;0.10;0.10;;;;;;;6.33;68.99;103137.72;5004568;28;20118;-83
2022/01/15 05:23:03;;;;;;;1.17;0.85;;;;;;;6.34;69.05;103134.22;5002371;28;20041;-83
2022/01/15 05:25:30;;;;;;;0.30;0.30;;;;;;;6.32;69.25;103125.41;5003062;28;20126;-83
2022/01/15 05:27:56;;;;;;;0.10;0.10;;;;;;;6.27;69.45;103119.97;5006195;28;20543;-83
2022/01/15 05:30:22;;;;;;;0.30;0.30;;;;;;;6.29;69.25;103120.00;5004598;28;20122;-83
2022/01/15 05:32:48;;;;;;;0.10;0.10;;;;;;;6.26;69.16;103118.16;5002638;28;20111;-84
2022/01/15 05:35:14;;;;;;;0.10;0.10;;;;;;;6.23;68.89;103119.78;5002741;28;20087;-83
2022/01/15 05:37:40;;;;;;;0.10;0.10;;;;;;;6.25;69.30;103120.75;5003723;28;20122;-83
2022/01/15 05:40:07;;;;;;;0.15;0.15;;;;;;;6.22;69.26;103112.72;5003458;28;20492;-83
2022/01/15 05:42:34;;;;;;;0.10;0.10;;;;;;;6.27;69.36;103106.81;5003343;28;20037;-83
2022/01/15 05:45:00;;;;;;;0.15;0.15;;;;;;;6.25;69.23;103097.06;5005037;28;20030;-83
2022/01/15 05:47:26;;;;;;;1.05;1.05;;;;;;;6.29;69.10;103099.84;5002893;28;20027;-83
2022/01/15 05:49:52;;;;;;;0.55;0.55;;;;;;;6.26;69.25;103089.22;5002724;28;20041;-83
2022/01/15 05:52:18;;;;;;;0.82;0.82;;;;;;;6.22;69.33;103089.03;5003402;28;20033;-83
2022/01/15 05:54:44;;;;;;;0.20;0.20;;;;;;;6.14;69.35;103088.78;5007394;28;20088;-83
2022/01/15 05:57:11;;;;;;;0.98;0.98;;;;;;;6.18;69.36;103079.25;5003566;28;20049;-82
2022/01/15 05:59:37;;;;;;;0.20;0.20;;;;;;;6.08;69.34;103089.47;5000487;28;20401;-83
2022/01/15 06:02:03;;;;;;;2.33;2.22;;;;;;;6.02;69.31;103083.09;4999032;28;20042;-83
2022/01/15 06:04:29;;;;;;;0.30;0.30;;;;;;;6.06;69.43;103077.13;5016050;28;20450;-83
2022/01/15 06:06:55;;;;;;;0.17;0.17;;;;;;;5.98;69.37;103082.06;5008564;28;20026;-83
2022/01/15 06:09:21;;;;;;;0.35;0.35;;;;;;;5.99;69.72;103078.63;5007992;28;20370;-83
2022/01/15 06:11:47;;;;;;;0.10;0.10;;;;;;;6.00;69.63;103075.16;5003669;28;20057;-83
2022/01/15 06:14:14;;;;;;;0.20;0.20;;;;;;;6.06;69.77;103079.75;5014313;28;20065;-83
2022/01/15 06:16:40;;;;;;;0.10;0.10;;;;;;;6.07;69.58;103066.63;5010573;28;20041;-83
2022/01/15 06:19:06;;;;;;;0.43;0.43;;;;;;;6.09;69.70;103064.97;5005832;28;20018;-83
2022/01/15 06:21:32;;;;;;;0.10;0.10;;;;;;;6.06;69.51;103070.09;5014655;28;20091;-83
2022/01/15 06:23:58;;;;;;;0.22;0.22;;;;;;;6.08;69.42;103075.41;5016111;28;20029;-83
2022/01/15 06:26:24;;;;;;;0.10;0.10;;;;;;;6.01;69.85;103071.69;4998447;28;20081;-83
2022/01/15 06:28:50;;;;;;;0.17;0.17;;;;;;;6.07;69.80;103070.97;4999646;28;20490;-83
2022/01/15 06:31:16;;;;;;;0.20;0.20;;;;;;;6.10;69.50;103065.84;5006570;28;20029;-83
2022/01/15 06:33:42;;;;;;;0.70;0.70;;;;;;;6.08;69.85;103072.78;5015632;28;20037;-83
2022/01/15 06:36:09;;;;;;;0.10;0.10;;;;;;;6.10;69.61;103069.34;5014037;28;20034;-83
2022/01/15 06:38:35;;;;;;;1.25;1.25;;;;;;;6.14;69.71;103066.00;5001030;28;20022;-83
2022/01/15 06:41:01;;;;;;;2.28;0.43;;;;;;;6.04;69.59;103055.97;5012823;28;20036;-83
2022/01/15 06:43:27;;;;;;;0.77;0.77;;;;;;;5.99;69.72;103054.94;5009300;28;20088;-82
2022/01/15 06:45:53;;;;;;;0.70;0.70;;;;;;;6.01;70.01;103058.53;5011794;28;20109;-83
2022/01/15 06:48:19;;;;;;;0.10;0.10;;;;;;;5.93;69.92;103047.72;5010262;28;20542;-83
2022/01/15 06:50:46;;;;;;;1.50;1.50;;;;;;;5.95;70.02;103055.66;5011183;28;20057;-83
2022/01/15 06:53:12;;;;;;;0.10;0.10;;;;;;;5.97;69.95;103051.34;5015438;28;20052;-83
2022/01/15 06:55:39;;;;;;;0.10;0.10;;;;;;;5.97;69.89;103053.97;5015088;28;20413;-83
2022/01/15 06:58:05;;;;;;;0.20;0.20;;;;;;;6.00;70.04;103059.38;4999062;28;20033;-83
2022/01/15 07:00:31;;;;;;;0.10;0.10;;;;;;;6.01;69.83;103055.91;5012498;28;20039;-83
2022/01/15 07:03:00;;;;;;;0.32;0.32;;;;;;;5.98;70.04;103059.31;5012803;28;20022;-83
2022/01/15 07:05:26;;;;;;;0.73;0.73;;;;;;;5.95;70.13;103059.16;5005866;28;20062;-83
2022/01/15 07:07:53;;;;;;;2.40;2.30;;;;;;;6.06;69.80;103056.94;5010385;28;20125;-83
2022/01/15 07:10:19;;;;;;;0.45;0.45;;;;;;;6.05;69.92;103057.78;5011713;28;20392;-83
2022/01/15 07:12:45;;;;;;;0.20;0.20;;;;;;;6.07;70.08;103055.19;5014797;28;20104;-84
2022/01/15 07:15:11;;;;;;;5.57;1.45;;;;;;;6.05;70.05;103057.78;5014693;28;20042;-84
2022/01/15 07:17:42;;;;;;;0.20;0.20;;;;;;;6.03;70.33;103051.59;5001761;28;20034;-83
2022/01/15 07:20:09;;;;;;;0.10;0.10;;;;;;;6.09;70.10;103057.06;5012318;28;20068;-84
2022/01/15 07:22:35;;;;;;;0.10;0.10;;;;;;;6.08;70.15;103054.34;5014403;28;20108;-83
2022/01/15 07:25:01;;;;;;;1.10;1.02;;;;;;;6.12;70.25;103054.53;5014886;28;20084;-84
2022/01/15 07:27:27;;;;;;;0.40;0.40;;;;;;;6.18;70.03;103056.47;5014878;28;20072;-83
2022/01/15 07:29:53;;;;;;;0.10;0.10;;;;;;;6.21;70.22;103053.94;4999292;28;20065;-84
2022/01/15 07:32:19;;;;;;;0.17;0.17;;;;;;;6.23;70.01;103057.53;5012436;28;20707;-85
2022/01/15 07:34:46;;;;;;;0.30;0.30;;;;;;;6.30;69.91;103053.34;5013717;28;20030;-85
2022/01/15 07:37:12;;;;;;;0.10;0.10;;;;;;;6.32;69.86;103054.31;5004132;28;20027;-85
2022/01/15 07:39:38;;;;;;;0.68;0.68;;;;;;;6.28;70.14;103057.66;5008734;28;20208;-84
2022/01/15 07:42:05;;;;;;;0.20;0.20;;;;;;;6.28;69.84;103055.94;5010523;28;20040;-84
2022/01/15 07:44:32;;;;;;;0.10;0.10;;;;;;;6.18;69.69;103052.94;5014378;28;20045;-84
2022/01/15 07:46:58;;;;;;;0.10;0.10;;;;;;;6.25;70.05;103049.69;5006437;28;20077;-84
2022/01/15 07:49:24;;;;;;;0.10;0.10;;;;;;;6.27;69.81;103053.25;5006654;28;20546;-84
2022/01/15 07:51:50;;;;;;;0.68;0.68;;;;;;;6.29;69.73;103056.81;5009803;28;20088;-84
2022/01/15 07:54:16;;;;;;;0.10;0.10;;;;;;;6.29;69.69;103056.81;5013747;28;20022;-84
2022/01/15 07:56:43;;;;;;;0.68;0.68;;;;;;;6.26;69.94;103054.09;5014443;28;20029;-84
2022/01/15 07:59:09;;;;;;;2.70;1.77;;;;;;;6.22;70.00;103049.56;5014559;28;20440;-85
2022/01/15 08:01:35;;;;;;;0.47;0.47;;;;;;;6.25;70.03;103045.28;5010523;28;20029;-85
2022/01/15 08:04:02;;;;;;;0.95;0.95;;;;;;;6.27;69.86;103045.38;5014180;28;20038;-84
2022/01/15 08:06:29;;;;;;;0.63;0.63;;;;;;;6.26;70.05;103057.63;5007440;28;20138;-84
2022/01/15 08:08:55;;;;;;;0.20;0.20;;;;;;;6.28;70.12;103049.75;5009570;28;20037;-84
2022/01/15 08:11:21;;;;;;;0.30;0.30;;;;;;;6.27;70.32;103048.00;5013431;28;20048;-83
2022/01/15 08:13:47;;;;;;;0.55;0.55;;;;;;;6.36;70.17;103047.41;5013670;28;20428;-84
2022/01/15 08:16:14;;;;;;;14.70;1.50;;;;;;;6.36;70.20;103043.03;5013759;28;20060;-82
2022/01/15 08:18:40;;;;;;;0.22;0.22;;;;;;;6.37;70.10;103042.19;5013695;28;20029;-83
2022/01/15 08:21:06;;;;;;;3.22;2.97;;;;;;;6.38;70.04;103041.34;5013799;28;20037;-84
2022/01/15 08:23:35;;;;;;;1.65;1.55;;;;;;;6.36;69.99;103040.38;5003572;28;20425;-85
2022/01/15 08:26:03;;;;;;;0.10;0.10;;;;;;;6.36;69.76;103036.88;5013065;28;20370;-84
2022/01/15 08:28:29;;;;;;;0.50;0.50;;;;;;;6.35;70.04;103049.13;5013030;28;20021;-84
2022/01/15 08:30:55;;;;;;;0.10;0.10;;;;;;;6.23;69.97;103036.47;5006591;28;20098;-85
2022/01/15 08:33:21;;;;;;;0.30;0.30;;;;;;;6.31;70.00;103028.81;5008409;28;20026;-84
2022/01/15 08:35:47;;;;;;;0.20;0.20;;;;;;;6.31;70.13;103039.34;5013088;28;20133;-84
2022/01/15 08:38:14;;;;;;;0.10;0.10;;;;;;;6.27;70.16;103032.19;5009768;28;20136;-84
2022/01/15 08:40:40;;;;;;;1.17;1.17;;;;;;;6.36;70.13;103027.22;5007597;28;20459;-84
2022/01/15 08:43:09;;;;;;;0.10;0.10;;;;;;;6.38;70.11;103025.53;4996774;28;20072;-83
2022/01/15 08:45:38;;;;;;;1.40;0.50;;;;;;;6.33;70.13;103016.59;5006529;28;20385;-84
2022/01/15 08:48:05;;;;;;;0.13;0.13;;;;;;;6.37;70.39;103013.22;5012528;28;20164;-82
2022/01/15 08:50:32;;;;;;;1.98;1.85;;;;;;;6.44;70.28;103015.22;5004107;28;20034;-83
2022/01/15 08:52:58;;;;;;;0.20;0.20;;;;;;;6.48;70.17;103001.28;5008488;28;20029;-84
2022/01/15 08:55:29;;;;;;;1.92;1.83;;;;;;;6.45;70.16;103006.44;5009289;28;20499;-82
2022/01/15 08:57:56;;;;;;;0.10;0.10;;;;;;;6.50;70.18;103013.63;4997493;28;20035;-83
2022/01/15 09:00:24;;;;;;;1.08;0.52;;;;;;;6.51;70.20;103015.41;5012211;28;20030;-83
2022/01/15 09:02:50;;;;;;;0.10;0.10;;;;;;;6.48;70.25;103001.28;5004927;28;20506;-83
2022/01/15 09:05:17;;;;;;;1.20;1.10;;;;;;;6.50;69.97;103003.09;5004099;28;20073;-82
2022/01/15 09:07:43;;;;;;;9.60;1.58;;;;;;;6.51;70.25;102996.97;5000815;28;20026;-82
2022/01/15 09:10:09;;;;;;;0.55;0.55;;;;;;;6.44;70.21;102999.41;5005863;28;20053;-82
2022/01/15 09:12:35;;;;;;;1.15;1.15;;;;;;;6.46;70.15;103002.97;5002185;28;20053;-82
2022/01/15 09:15:02;;;;;;;0.20;0.20;;;;;;;6.49;70.35;102996.91;5002568;28;20045;-82
2022/01/15 09:17:28;;;;;;;0.75;0.75;;;;;;;6.55;70.19;103006.75;5004370;28;20026;-82
2022/01/15 09:19:55;;;;;;;0.20;0.20;;;;;;;6.57;69.82;103005.06;5008842;28;20041;-82
2022/01/15 09:22:22;;;;;;;0.10;0.10;;;;;;;6.58;70.02;103009.47;5008363;28;20049;-82
2022/01/15 09:24:48;;;;;;;0.10;0.10;;;;;;;6.55;69.99;103007.63;5008250;28;20081;-81
2022/01/15 09:30:19;;;;;;;0.45;0.25;;;;;;;6.62;70.11;103006.09;5000051;28;20077;-81
2022/01/15 09:35:27;;;;;;;0.28;0.28;;;;;;;6.63;69.99;103000.00;5062132;28;20427;-81
2022/01/15 09:37:55;;;;;;;0.10;0.10;;;;;;;6.63;70.03;103000.00;5051912;28;20033;-81
2022/01/15 09:40:25;;;;;;;0.40;0.40;;;;;;;6.71;69.71;103005.50;5047968;28;20116;-81
2022/01/15 09:42:53;;;;;;;0.10;0.10;;;;;;;6.64;70.18;103001.75;5029307;28;20038;-81
2022/01/15 09:45:25;;;;;;;0.40;0.40;;;;;;;6.61;70.17;102993.78;5028602;28;20064;-81
2022/01/15 09:48:02;;;;;;;0.20;0.20;;;;;;;6.70;69.97;103001.94;5029454;28;20021;-81
2022/01/15 09:50:31;;;;;;;0.10;0.10;;;;;;;6.64;70.13;103001.75;5031681;28;20034;-82
2022/01/15 09:52:58;;;;;;;0.10;0.10;;;;;;;6.53;70.02;103001.44;5026139;28;20483;-82
2022/01/15 09:55:26;;;;;;;0.20;0.20;;;;;;;6.60;70.02;102998.16;5021530;28;20037;-83
2022/01/15 09:57:56;;;;;;;0.75;0.75;;;;;;;6.60;69.79;103000.78;5025241;28;20421;-81
2022/01/15 10:00:24;;;;;;;0.20;0.20;;;;;;;6.58;69.77;102998.94;5030633;28;20080;-81
2022/01/15 10:02:52;;;;;;;0.20;0.20;;;;;;;6.61;69.70;103002.56;5027979;28;20041;-82
2022/01/15 10:05:19;;;;;;;0.77;0.60;;;;;;;6.64;69.72;103007.03;5025745;28;20405;-81
2022/01/15 10:08:04;;;;;;;0.10;0.10;;;;;;;6.77;69.48;103003.94;5026272;28;20053;-80
2022/01/15 10:10:34;;;;;;;0.10;0.10;;;;;;;6.68;69.65;103006.28;5027795;28;20037;-81
2022/01/15 10:13:22;;;;;;;0.10;0.10;;;;;;;6.74;69.62;103008.22;5027555;28;20026;-82
2022/01/15 10:18:44;;;;;;;0.10;0.10;;;;;;;6.79;69.96;102994.34;5069271;27;20461;-81
2022/01/15 10:21:26;;;;;;;1.45;1.45;;;;;;;6.81;70.15;102991.75;5046774;28;20089;-82
2022/01/15 10:23:56;;;;;;;0.28;0.28;;;;;;;6.84;69.51;102988.31;5037995;28;20026;-81
2022/01/15 10:26:25;;;;;;;0.10;0.10;;;;;;;6.82;69.64;102984.72;5038713;28;20040;-81
2022/01/15 10:31:41;;;;;;;0.52;0.52;;;;;;;6.83;69.82;102987.44;4997630;27;2202361;-81
2022/01/15 10:34:29;;;;;;;0.10;0.10;;;;;;;6.88;69.33;102985.81;5050057;28;20025;-82
2022/01/15 10:37:18;;;;;;;0.30;0.22;;;;;;;6.91;69.10;102975.34;5046831;28;20025;-81
2022/01/15 10:40:07;;;;;;;0.10;0.10;;;;;;;6.87;69.59;102972.59;5048489;28;20025;-82
2022/01/15 10:42:34;;;;;;;0.45;0.45;;;;;;;6.85;69.42;102976.91;5048902;28;20033;-81
2022/01/15 10:45:12;;;;;;;1.27;1.17;;;;;;;6.97;69.40;102980.81;5050140;28;20030;-81
2022/01/15 10:47:47;;;;;;;0.10;0.10;;;;;;;6.93;69.69;102978.94;5049078;28;20025;-82
2022/01/15 10:50:25;;;;;;;0.32;0.32;;;;;;;6.96;69.16;102975.50;5048188;28;20503;-82
2022/01/15 10:52:57;;;;;;;0.20;0.20;;;;;;;6.91;69.27;102979.75;5048828;28;20036;-82
2022/01/15 10:55:30;;;;;;;0.20;0.20;;;;;;;6.93;69.04;102972.78;5047644;28;20400;-83
2022/01/15 10:58:01;;;;;;;0.30;0.30;;;;;;;6.89;69.12;102970.88;5048469;28;20029;-82
2022/01/15 11:00:38;;;;;;;0.32;0.32;;;;;;;6.84;68.92;102969.84;5050947;28;20037;-82
2022/01/15 11:03:08;;;;;;;1.27;1.27;;;;;;;6.83;68.76;102970.69;5048265;28;20025;-87
2022/01/15 11:05:55;;;;;;;13.15;1.10;;;;;;;6.89;68.74;102965.63;5050654;28;20029;-93
2022/01/15 11:08:43;;;;;;;1.27;1.27;;;;;;;6.89;68.86;102961.25;5037776;28;20120;-95
2022/01/15 11:11:14;;;;;;;0.30;0.30;;;;;;;6.83;68.71;102965.44;5052338;28;20056;-95
2022/01/15 11:13:46;;;;;;;0.30;0.30;;;;;;;6.87;69.14;102967.34;5049446;28;20029;-83
2022/01/15 11:16:16;;;;;;;0.15;0.15;;;;;;;6.87;69.01;102968.22;5049047;28;20032;-82
2022/01/15 11:18:54;;;;;;;0.10;0.10;;;;;;;6.90;68.63;102972.69;5052026;28;20472;-82
2022/01/15 11:21:26;;;;;;;0.10;0.10;;;;;;;6.88;68.41;102963.81;5047998;28;20515;-80
2022/01/15 11:24:11;;;;;;;0.20;0.20;;;;;;;6.98;68.23;102965.91;5050467;28;20025;-89
2022/01/15 11:26:55;;;;;;;0.20;0.20;;;;;;;6.92;68.42;102956.06;5045860;28;20025;-84
2022/01/15 11:29:23;;;;;;;0.35;0.35;;;;;;;6.86;68.51;102955.88;5047303;28;20572;-83
2022/01/15 11:31:53;;;;;;;0.32;0.32;;;;;;;6.88;68.44;102953.28;5049812;28;20117;-84
2022/01/15 11:34:21;;;;;;;0.28;0.28;;;;;;;6.89;68.46;102944.53;5048772;28;20028;-84
2022/01/15 11:36:48;;;;;;;0.20;0.20;;;;;;;6.92;68.25;102939.38;5049417;28;20037;-84
2022/01/15 11:39:33;;;;;;;0.10;0.10;;;;;;;7.00;68.44;102943.09;5048218;28;20045;-84
2022/01/15 11:42:03;;;;;;;0.52;0.52;;;;;;;6.90;68.45;102936.69;5028249;28;20033;-84
2022/01/15 11:47:21;;;;;;;0.20;0.20;;;;;;;6.98;68.28;102929.00;5090774;27;20412;-86
2022/01/15 11:49:49;;;;;;;0.40;0.40;;;;;;;6.92;67.85;102926.19;5088218;28;20036;-85
2022/01/15 11:57:49;;;;;;;3.67;1.67;;;;;;;6.99;66.88;102919.34;5080455;27;20430;-85
2022/01/15 12:00:22;;;;;;;1.23;1.13;;;;;;;6.96;67.19;102913.13;5065966;28;20047;-85
2022/01/15 12:03:08;;;;;;;3.88;1.08;;;;;;;7.06;67.15;102911.63;5049429;28;20028;-85
2022/01/15 12:05:39;;;;;;;0.10;0.10;;;;;;;6.94;67.38;102906.03;5046949;28;20029;-84
2022/01/15 12:10:50;;;;;;;1.30;1.30;;;;;;;6.93;67.34;102901.63;5076362;27;20414;-84
2022/01/15 12:13:23;;;;;;;0.10;0.10;;;;;;;6.89;67.34;102897.09;5056509;28;20033;-85
2022/01/15 12:19:00;;;;;;;0.10;0.10;;;;;;;7.05;67.82;102886.16;5080848;27;20446;-86
2022/01/15 12:21:44;;;;;;;0.10;0.10;;;;;;;7.06;67.52;102884.41;5088264;22;20551;-83
2022/01/15 12:24:36;;;;;;;0.10;0.10;;;;;;;7.11;67.16;102874.88;5067033;28;20107;-83